Terminal Aerodrome Forecast
Issued by NWS Springfield, MO

Home | Current Version | Previous Version | Text Only | Print | Product List | Glossary On
Versions: 1 2 3 4 5 6 7 8 9 10 11 12 13 14 15 16 17 18 19 20 21 22
000
FTUS43 KSGF 021800 AAA
TAFSGF
TAF AMD
KSGF 021808Z 0218/0318 21005KT P6SM BKN012
     FM022100 35005KT P6SM VCSH SCT012 BKN020
     FM030100 VRB04KT P6SM SCT030 BKN080
      TEMPO 0309/0312 4SM BR OVC009
     FM031500 35005KT P6SM OVC015=

USA.gov is the U.S. government's official web portal to all federal, state and local government web resources and services.